Time;durP1;ratioP1;P1;durP2;ratioP2;P2;SDS_P1;SDS_P2;PMS_P1;PMS_P2;Temp;Humidity;BMP_temperature;BMP_pressure;BME280_temperature;BME280_humidity;BME280_pressure;Samples;Min_cycle;Max_cycle;Signal;HPM_P1;HPM_P2
2021/03/25 00:01:44;;;;;;;11.78;6.62;;;;;;;1.24;100.00;99030.63;1715015;82;21500;-67
2021/03/25 00:04:14;;;;;;;;;;;;;;;1.20;100.00;99032.27;1719400;82;21069;-67
2021/03/25 00:06:49;;;;;;;10.10;6.17;;;;;;;1.17;100.00;99037.38;1714841;82;20175;-67
2021/03/25 00:09:42;;;;;;;10.15;6.60;;;;;;;1.15;100.00;99026.47;1724591;81;20963;-67
2021/03/25 00:12:13;;;;;;;9.83;6.58;;;;;;;1.14;100.00;99027.30;1713182;82;20978;-67
2021/03/25 00:14:45;;;;;;;10.30;6.73;;;;;;;1.11;100.00;99024.20;1796134;78;21477;-67
2021/03/25 00:17:17;;;;;;;9.50;6.20;;;;;;;1.12;100.00;99024.66;1798431;78;21757;-67
2021/03/25 00:19:48;;;;;;;10.88;6.47;;;;;;;1.13;100.00;99022.95;1787712;78;21367;-67
2021/03/25 00:22:18;;;;;;;9.30;6.40;;;;;;;1.10;100.00;99018.55;1782628;79;20911;-67
2021/03/25 00:24:49;;;;;;;12.15;7.42;;;;;;;1.11;100.00;99021.61;1794737;79;20943;-66
2021/03/25 00:27:19;;;;;;;16.00;9.55;;;;;;;1.12;100.00;99021.19;1784716;79;21532;-66
2021/03/25 00:29:50;;;;;;;12.35;8.13;;;;;;;1.13;100.00;99022.95;1766291;79;21488;-67
2021/03/25 00:32:20;;;;;;;9.93;6.97;;;;;;;1.15;100.00;99024.75;1766289;80;21378;-66
2021/03/25 00:34:50;;;;;;;7.58;6.00;;;;;;;1.15;100.00;99014.78;1768518;79;20990;-66
2021/03/25 00:37:20;;;;;;;8.18;6.45;;;;;;;1.16;100.00;99017.84;1766109;80;21012;-66
2021/03/25 00:39:49;;;;;;;8.45;6.05;;;;;;;1.18;100.00;99007.07;1766419;79;20930;-66
2021/03/25 00:42:21;;;;;;;7.65;5.78;;;;;;;1.21;100.00;99011.94;1766520;80;20891;-67
2021/03/25 00:44:51;;;;;;;8.83;6.08;;;;;;;1.25;100.00;99007.70;1768775;79;21371;-66
2021/03/25 00:47:20;;;;;;;9.85;6.62;;;;;;;1.22;100.00;99003.72;1768518;79;21509;-66
2021/03/25 00:49:51;;;;;;;10.38;6.60;;;;;;;1.20;100.00;99004.10;1766333;80;20966;-66
2021/03/25 00:52:22;;;;;;;11.12;7.08;;;;;;;1.20;100.00;99004.98;1766492;80;21512;-67
2021/03/25 00:54:51;;;;;;;9.40;7.00;;;;;;;1.20;100.00;99006.70;1766628;79;20943;-67
2021/03/25 00:57:21;;;;;;;8.03;6.37;;;;;;;1.17;100.00;99001.00;1768599;79;22096;-66
2021/03/25 00:59:52;;;;;;;10.35;6.87;;;;;;;1.14;100.00;99004.80;1766583;79;20970;-66
2021/03/25 01:02:23;;;;;;;9.53;6.87;;;;;;;1.14;100.00;99007.41;1774349;79;20959;-67
2021/03/25 01:04:53;;;;;;;10.70;7.00;;;;;;;1.14;100.00;99010.00;1795611;78;20919;-67
2021/03/25 01:07:28;;;;;;;9.25;6.12;;;;;;;1.16;100.00;99007.45;1795206;78;21462;-66
2021/03/25 01:09:59;;;;;;;8.30;6.42;;;;;;;1.14;100.00;99011.30;1797603;78;21421;-67
2021/03/25 01:12:28;;;;;;;9.58;6.35;;;;;;;1.14;100.00;99000.91;1795828;78;20943;-66
2021/03/25 01:15:00;;;;;;;8.13;5.97;;;;;;;1.14;100.00;99002.63;1768760;79;21474;-67
2021/03/25 01:17:32;;;;;;;10.25;6.45;;;;;;;1.13;100.00;98993.95;1768780;79;20935;-67
2021/03/25 01:20:06;;;;;;;9.90;6.50;;;;;;;1.12;100.00;98990.02;1766392;80;20923;-66
2021/03/25 01:22:37;;;;;;;8.73;6.10;;;;;;;1.08;100.00;98990.34;1766531;79;21410;-67
2021/03/25 01:25:08;;;;;;;10.08;6.92;;;;;;;1.08;100.00;98992.94;1768749;79;20982;-68
2021/03/25 01:27:40;;;;;;;9.83;6.40;;;;;;;1.07;100.00;98993.78;1767086;78;20967;-67
2021/03/25 01:30:10;;;;;;;9.03;5.97;;;;;;;1.06;100.00;98985.94;1750423;79;20926;-66
2021/03/25 01:32:40;;;;;;;10.32;6.75;;;;;;;1.07;100.00;98987.70;1766352;80;20927;-67
2021/03/25 01:35:12;;;;;;;8.05;6.10;;;;;;;1.04;100.00;98986.31;1766408;80;21197;-67
2021/03/25 01:37:47;;;;;;;10.65;6.40;;;;;;;1.03;100.00;98980.66;1766294;80;20947;-67
2021/03/25 01:40:33;;;;;;;9.83;5.97;;;;;;;1.02;100.00;98982.80;1766299;80;21509;-67
2021/03/25 01:43:29;;;;;;;8.43;6.03;;;;;;;1.01;100.00;98981.03;1766393;80;20907;-67
2021/03/25 01:46:32;;;;;;;8.73;5.95;;;;;;;1.01;100.00;98986.23;1766348;81;20931;-67
2021/03/25 01:49:15;;;;;;;7.60;5.60;;;;;;;1.00;100.00;98985.34;1766909;78;21481;-67
2021/03/25 01:52:00;;;;;;;11.08;6.17;;;;;;;1.01;100.00;98981.03;1766339;80;20903;-67
2021/03/25 01:54:57;;;;;;;8.70;5.87;;;;;;;1.00;100.00;98982.75;1766056;80;20946;-67
2021/03/25 01:57:51;;;;;;;7.58;5.20;;;;;;;0.99;100.00;98984.00;1746198;80;20930;-67
2021/03/25 02:00:35;;;;;;;8.63;5.62;;;;;;;0.97;100.00;98981.36;1768527;79;21486;-67
2021/03/25 02:03:32;;;;;;;8.90;5.53;;;;;;;1.00;100.00;98984.47;1729772;78;21082;-67
2021/03/25 02:06:35;;;;;;;7.58;5.40;;;;;;;0.97;100.00;98981.36;1775783;79;20939;-66
2021/03/25 02:09:17;;;;;;;9.75;5.75;;;;;;;0.98;100.00;98983.55;1803524;78;21052;-67
2021/03/25 02:12:13;;;;;;;7.85;5.72;;;;;;;0.99;100.00;98982.70;1787089;77;20953;-67
2021/03/25 02:15:05;;;;;;;9.28;5.50;;;;;;;0.98;100.00;98980.95;1783378;79;20929;-67
2021/03/25 02:17:44;;;;;;;9.03;5.55;;;;;;;0.96;100.00;98977.00;1788594;79;22102;-67
2021/03/25 02:21:02;;;;;;;6.97;5.10;;;;;;;0.96;100.00;98975.70;1801205;77;21088;-67
2021/03/25 02:24:03;;;;;;;10.15;6.30;;;;;;;0.94;100.00;98970.44;1812681;79;20942;-67
2021/03/25 02:26:41;;;;;;;9.20;5.58;;;;;;;0.93;100.00;98971.69;1815488;77;20957;-67
2021/03/25 02:29:51;;;;;;;10.90;5.17;;;;;;;0.93;100.00;98971.27;1779894;79;21064;-67
2021/03/25 02:32:34;;;;;;;10.75;5.72;;;;;;;0.92;100.00;98972.53;1783368;79;21397;-69
2021/03/25 02:35:09;;;;;;;7.28;5.20;;;;;;;0.88;100.00;98970.26;1782768;79;21551;-67
2021/03/25 02:37:40;;;;;;;8.33;5.60;;;;;;;0.87;100.00;98978.00;1791941;79;20950;-66
2021/03/25 02:40:15;;;;;;;8.83;5.28;;;;;;;0.85;100.00;98977.08;1815135;77;20922;-67
2021/03/25 02:43:10;;;;;;;9.78;6.12;;;;;;;0.83;100.00;98967.95;1814126;77;20938;-66
2021/03/25 02:45:51;;;;;;;9.68;5.60;;;;;;;0.81;100.00;98967.44;1815406;79;21188;-67
2021/03/25 02:48:26;;;;;;;7.55;5.20;;;;;;;0.77;100.00;98971.66;1798611;79;20958;-66
2021/03/25 02:51:10;;;;;;;6.67;5.05;;;;;;;0.76;100.00;98970.32;1783279;80;20926;-66
2021/03/25 02:53:44;;;;;;;10.32;5.87;;;;;;;0.78;100.00;98977.73;1783224;79;21057;-67
2021/03/25 02:56:33;;;;;;;10.05;5.53;;;;;;;0.77;100.00;98983.77;1756104;80;20965;-67
2021/03/25 02:59:11;;;;;;;9.20;5.67;;;;;;;0.74;100.00;98981.08;1802877;77;21137;-67
2021/03/25 03:01:45;;;;;;;9.55;5.67;;;;;;;0.76;100.00;98983.30;1815304;77;20957;-67
2021/03/25 03:04:23;;;;;;;7.67;5.22;;;;;;;0.74;100.00;98978.48;1814943;77;20958;-67
2021/03/25 03:07:08;;;;;;;8.38;5.40;;;;;;;0.78;100.00;98972.13;1860590;76;22273;-64
2021/03/25 03:09:48;;;;;;;9.25;5.50;;;;;;;0.73;100.00;98968.93;1748091;80;20985;-66
2021/03/25 03:12:27;;;;;;;9.50;4.78;;;;;;;0.67;100.00;98977.84;1758290;81;21108;-68
2021/03/25 03:15:23;;;;;;;8.63;5.53;;;;;;;0.64;100.00;98981.22;1747909;80;21001;-63
2021/03/25 03:18:16;;;;;;;9.23;5.30;;;;;;;0.63;100.00;98974.27;1761987;81;20955;-63
2021/03/25 03:20:57;;;;;;;7.85;5.33;;;;;;;0.62;100.00;98976.40;1748213;82;21029;-61
2021/03/25 03:23:32;;;;;;;6.95;5.17;;;;;;;0.63;100.00;98976.45;1760332;81;21031;-62
2021/03/25 03:26:09;;;;;;;8.25;5.78;;;;;;;0.63;100.00;98975.56;1734879;80;21213;-62
2021/03/25 03:28:48;;;;;;;8.78;4.95;;;;;;;0.58;100.00;98975.84;1731730;82;21485;-62
2021/03/25 03:31:28;;;;;;;9.08;6.03;;;;;;;0.60;100.00;98974.17;1739378;81;20962;-62
2021/03/25 03:34:04;;;;;;;10.53;5.37;;;;;;;0.60;100.00;98981.55;1738324;82;20943;-63
2021/03/25 03:36:33;;;;;;;7.67;5.58;;;;;;;0.63;100.00;98980.34;1746117;81;20977;-63
2021/03/25 03:39:18;;;;;;;7.70;4.97;;;;;;;0.63;100.00;98977.74;1752776;80;21202;-65
2021/03/25 03:42:06;;;;;;;8.73;5.55;;;;;;;0.62;100.00;98970.80;1752765;81;21017;-63
2021/03/25 03:44:43;;;;;;;8.93;5.78;;;;;;;0.67;100.00;98978.72;1752844;80;20934;-64
2021/03/25 03:47:16;;;;;;;11.12;5.70;;;;;;;0.66;100.00;98982.56;1745467;81;21022;-64
2021/03/25 03:49:52;;;;;;;9.13;5.45;;;;;;;0.67;100.00;98980.43;1710663;82;20935;-63
2021/03/25 03:52:30;;;;;;;7.95;5.22;;;;;;;0.67;100.00;98979.13;1739806;81;22232;-62
2021/03/25 03:55:04;;;;;;;8.80;5.05;;;;;;;0.65;100.00;98981.69;1739827;81;20986;-65
2021/03/25 03:58:15;;;;;;;9.03;5.83;;;;;;;0.65;100.00;98984.70;1712063;82;21121;-62
2021/03/25 04:00:59;;;;;;;9.40;6.17;;;;;;;0.68;100.00;98986.97;1739901;81;20944;-67
2021/03/25 04:03:40;;;;;;;10.82;6.60;;;;;;;0.68;100.00;98985.67;1702521;81;21066;-65
2021/03/25 04:06:44;;;;;;;12.55;7.28;;;;;;;0.66;100.00;98986.04;1734101;80;21196;-63
2021/03/25 04:09:31;;;;;;;11.73;6.45;;;;;;;0.68;100.00;98986.09;1785721;80;21045;-63
2021/03/25 04:12:17;;;;;;;8.90;5.97;;;;;;;0.67;100.00;98985.63;1787553;80;21484;-64
2021/03/25 04:14:54;;;;;;;8.35;5.78;;;;;;;0.67;100.00;98992.11;1768745;80;20906;-63
2021/03/25 04:17:29;;;;;;;8.95;5.40;;;;;;;0.68;100.00;98984.38;1789683;78;20926;-63
2021/03/25 04:20:08;;;;;;;7.25;4.97;;;;;;;0.72;100.00;98983.62;1787757;79;20916;-63
2021/03/25 04:22:54;;;;;;;8.20;5.90;;;;;;;0.72;100.00;98984.05;1787153;78;20946;-63
